Terminal Aerodrome Forecast
Issued by NWS

Home | Current Version | Previous Version | Text Only | Print | Product List | Glossary On
Versions: 1 2 3 4 5 6 7 8 9 10 11 12 13 14 15 16 17 18 19 20 21 22
350
FTUS43 KMPX 232325
TAFAXN
TAF
KAXN 232325Z 2400/2424 14015G25KT P6SM SCT015 BKN035
     FM240400 23009KT P6SM BKN250
     FM240600 26009KT P6SM BKN250
     FM241600 30015G22KT P6SM FEW050 SCT250=

USA.gov is the U.S. government's official web portal to all federal, state and local government web resources and services.